sensor_id;sensor_type;location;lat;lon;timestamp;temperature;humidity
23815;DHT22;12088;53.078;8.720;2022-09-28T00:02:09;6.50;99.90
23815;DHT22;12088;53.078;8.720;2022-09-28T00:04:34;6.60;99.90
23815;DHT22;12088;53.078;8.720;2022-09-28T00:07:00;6.60;99.90
23815;DHT22;12088;53.078;8.720;2022-09-28T00:09:25;6.60;99.90
23815;DHT22;12088;53.078;8.720;2022-09-28T00:11:51;6.50;99.90
23815;DHT22;12088;53.078;8.720;2022-09-28T00:14:18;6.50;99.90
23815;DHT22;12088;53.078;8.720;2022-09-28T00:16:44;6.50;99.90
23815;DHT22;12088;53.078;8.720;2022-09-28T00:19:11;6.50;99.90
23815;DHT22;12088;53.078;8.720;2022-09-28T00:21:38;6.50;99.90
23815;DHT22;12088;53.078;8.720;2022-09-28T00:24:06;6.50;99.90
23815;DHT22;12088;53.078;8.720;2022-09-28T00:26:48;6.60;99.90
23815;DHT22;12088;53.078;8.720;2022-09-28T00:29:23;6.50;99.90
23815;DHT22;12088;53.078;8.720;2022-09-28T00:31:55;6.60;99.90
23815;DHT22;12088;53.078;8.720;2022-09-28T00:34:28;6.70;99.90
23815;DHT22;12088;53.078;8.720;2022-09-28T00:36:58;6.80;99.90
23815;DHT22;12088;53.078;8.720;2022-09-28T00:39:24;6.90;99.90
23815;DHT22;12088;53.078;8.720;2022-09-28T00:41:49;6.90;99.90
23815;DHT22;12088;53.078;8.720;2022-09-28T00:46:55;7.00;99.90
23815;DHT22;12088;53.078;8.720;2022-09-28T00:49:32;6.90;99.90
23815;DHT22;12088;53.078;8.720;2022-09-28T00:51:59;6.80;99.90
23815;DHT22;12088;53.078;8.720;2022-09-28T00:54:25;7.00;99.90
23815;DHT22;12088;53.078;8.720;2022-09-28T00:56:50;7.10;99.90
23815;DHT22;12088;53.078;8.720;2022-09-28T00:59:16;7.10;99.90
23815;DHT22;12088;53.078;8.720;2022-09-28T01:01:41;7.20;99.90
23815;DHT22;12088;53.078;8.720;2022-09-28T01:04:07;7.10;99.90
23815;DHT22;12088;53.078;8.720;2022-09-28T01:06:34;7.10;99.90
23815;DHT22;12088;53.078;8.720;2022-09-28T01:09:03;7.10;99.90
23815;DHT22;12088;53.078;8.720;2022-09-28T01:11:31;7.00;99.90
23815;DHT22;12088;53.078;8.720;2022-09-28T01:13:57;6.90;99.90
23815;DHT22;12088;53.078;8.720;2022-09-28T01:25:05;6.80;99.90
23815;DHT22;12088;53.078;8.720;2022-09-28T01:27:43;6.80;99.90
23815;DHT22;12088;53.078;8.720;2022-09-28T01:30:11;6.90;99.90
23815;DHT22;12088;53.078;8.720;2022-09-28T01:33:20;6.90;99.90
23815;DHT22;12088;53.078;8.720;2022-09-28T01:35:51;7.00;99.90
23815;DHT22;12088;53.078;8.720;2022-09-28T01:38:22;7.00;99.90
23815;DHT22;12088;53.078;8.720;2022-09-28T01:40:49;7.00;99.90
23815;DHT22;12088;53.078;8.720;2022-09-28T01:43:19;7.00;99.90
23815;DHT22;12088;53.078;8.720;2022-09-28T01:45:50;7.10;99.90
23815;DHT22;12088;53.078;8.720;2022-09-28T01:48:22;7.10;99.90
23815;DHT22;12088;53.078;8.720;2022-09-28T01:50:52;7.10;99.90
23815;DHT22;12088;53.078;8.720;2022-09-28T01:53:27;7.20;99.90
23815;DHT22;12088;53.078;8.720;2022-09-28T01:56:00;7.20;99.90
23815;DHT22;12088;53.078;8.720;2022-09-28T01:58:35;7.30;99.90
23815;DHT22;12088;53.078;8.720;2022-09-28T02:01:34;7.30;99.90
23815;DHT22;12088;53.078;8.720;2022-09-28T02:04:25;7.30;99.90
23815;DHT22;12088;53.078;8.720;2022-09-28T02:06:56;7.30;99.90
23815;DHT22;12088;53.078;8.720;2022-09-28T02:09:27;7.40;99.90
23815;DHT22;12088;53.078;8.720;2022-09-28T02:11:57;7.50;99.90
23815;DHT22;12088;53.078;8.720;2022-09-28T02:14:26;7.40;99.90
23815;DHT22;12088;53.078;8.720;2022-09-28T02:16:55;7.50;99.90
23815;DHT22;12088;53.078;8.720;2022-09-28T02:19:26;7.60;99.90
23815;DHT22;12088;53.078;8.720;2022-09-28T02:21:58;7.60;99.90
23815;DHT22;12088;53.078;8.720;2022-09-28T02:24:51;7.70;99.90
23815;DHT22;12088;53.078;8.720;2022-09-28T02:27:35;7.70;99.90
23815;DHT22;12088;53.078;8.720;2022-09-28T02:32:31;7.70;99.90
23815;DHT22;12088;53.078;8.720;2022-09-28T02:34:58;7.70;99.90
23815;DHT22;12088;53.078;8.720;2022-09-28T02:37:25;7.70;99.90
23815;DHT22;12088;53.078;8.720;2022-09-28T02:39:51;7.70;99.90
23815;DHT22;12088;53.078;8.720;2022-09-28T02:42:20;7.70;99.90
23815;DHT22;12088;53.078;8.720;2022-09-28T02:45:10;7.80;99.90
23815;DHT22;12088;53.078;8.720;2022-09-28T02:50:28;7.80;99.90
23815;DHT22;12088;53.078;8.720;2022-09-28T02:55:47;7.80;99.90
23815;DHT22;12088;53.078;8.720;2022-09-28T03:01:17;7.90;99.90
23815;DHT22;12088;53.078;8.720;2022-09-28T03:06:22;8.00;99.90
23815;DHT22;12088;53.078;8.720;2022-09-28T03:08:58;8.00;99.90
23815;DHT22;12088;53.078;8.720;2022-09-28T03:11:45;8.00;99.90
23815;DHT22;12088;53.078;8.720;2022-09-28T03:14:12;8.10;99.90
23815;DHT22;12088;53.078;8.720;2022-09-28T03:16:42;8.10;99.90
23815;DHT22;12088;53.078;8.720;2022-09-28T03:19:10;8.10;99.90
23815;DHT22;12088;53.078;8.720;2022-09-28T03:21:35;8.10;99.90
23815;DHT22;12088;53.078;8.720;2022-09-28T03:24:01;8.10;99.90
23815;DHT22;12088;53.078;8.720;2022-09-28T03:26:28;8.10;99.90
23815;DHT22;12088;53.078;8.720;2022-09-28T03:28:54;8.00;99.90
23815;DHT22;12088;53.078;8.720;2022-09-28T03:31:19;8.10;99.90
23815;DHT22;12088;53.078;8.720;2022-09-28T03:33:45;8.00;99.90
23815;DHT22;12088;53.078;8.720;2022-09-28T03:36:10;8.00;99.90
23815;DHT22;12088;53.078;8.720;2022-09-28T03:38:36;8.10;99.90
23815;DHT22;12088;53.078;8.720;2022-09-28T03:41:01;8.10;99.90
23815;DHT22;12088;53.078;8.720;2022-09-28T03:43:28;8.10;99.90
23815;DHT22;12088;53.078;8.720;2022-09-28T03:45:56;8.10;99.90
23815;DHT22;12088;53.078;8.720;2022-09-28T03:48:40;8.20;99.90
23815;DHT22;12088;53.078;8.720;2022-09-28T03:51:07;8.20;99.90
23815;DHT22;12088;53.078;8.720;2022-09-28T03:53:34;8.20;99.90
23815;DHT22;12088;53.078;8.720;2022-09-28T03:56:09;8.20;99.90
23815;DHT22;12088;53.078;8.720;2022-09-28T03:58:36;8.20;99.90
23815;DHT22;12088;53.078;8.720;2022-09-28T04:01:06;8.20;99.90
23815;DHT22;12088;53.078;8.720;2022-09-28T04:03:32;8.20;99.90
23815;DHT22;12088;53.078;8.720;2022-09-28T04:05:58;8.20;99.90
23815;DHT22;12088;53.078;8.720;2022-09-28T04:08:23;8.20;99.90
23815;DHT22;12088;53.078;8.720;2022-09-28T04:10:49;8.20;99.90
23815;DHT22;12088;53.078;8.720;2022-09-28T04:13:14;8.20;99.90
23815;DHT22;12088;53.078;8.720;2022-09-28T04:15:40;8.30;99.90
23815;DHT22;12088;53.078;8.720;2022-09-28T04:18:10;8.20;99.90
23815;DHT22;12088;53.078;8.720;2022-09-28T04:20:36;8.20;99.90
23815;DHT22;12088;53.078;8.720;2022-09-28T04:23:02;8.20;99.90
23815;DHT22;12088;53.078;8.720;2022-09-28T04:25:27;8.20;99.90
23815;DHT22;12088;53.078;8.720;2022-09-28T04:27:53;8.10;99.90
23815;DHT22;12088;53.078;8.720;2022-09-28T04:30:37;8.20;99.90
23815;DHT22;12088;53.078;8.720;2022-09-28T04:33:02;8.20;99.90
23815;DHT22;12088;53.078;8.720;2022-09-28T04:35:28;8.20;99.90
23815;DHT22;12088;53.078;8.720;2022-09-28T04:37:53;8.20;99.90
23815;DHT22;12088;53.078;8.720;2022-09-28T04:40:19;8.20;99.90
23815;DHT22;12088;53.078;8.720;2022-09-28T04:42:52;8.30;99.90
23815;DHT22;12088;53.078;8.720;2022-09-28T04:45:18;8.30;99.90
23815;DHT22;12088;53.078;8.720;2022-09-28T04:47:43;8.30;99.90
23815;DHT22;12088;53.078;8.720;2022-09-28T04:50:09;8.40;99.90
23815;DHT22;12088;53.078;8.720;2022-09-28T04:52:35;8.30;99.90
23815;DHT22;12088;53.078;8.720;2022-09-28T04:55:01;8.40;99.90
23815;DHT22;12088;53.078;8.720;2022-09-28T04:57:26;8.30;99.90
23815;DHT22;12088;53.078;8.720;2022-09-28T04:59:52;8.30;99.90
23815;DHT22;12088;53.078;8.720;2022-09-28T05:02:17;8.30;99.90
23815;DHT22;12088;53.078;8.720;2022-09-28T05:04:43;8.30;99.90
23815;DHT22;12088;53.078;8.720;2022-09-28T05:07:08;8.30;99.90
23815;DHT22;12088;53.078;8.720;2022-09-28T05:09:34;8.30;99.90
23815;DHT22;12088;53.078;8.720;2022-09-28T05:11:59;8.30;99.90
23815;DHT22;12088;53.078;8.720;2022-09-28T05:14:25;8.30;99.90
23815;DHT22;12088;53.078;8.720;2022-09-28T05:16:50;8.30;99.90
23815;DHT22;12088;53.078;8.720;2022-09-28T05:19:16;8.30;99.90
23815;DHT22;12088;53.078;8.720;2022-09-28T05:21:45;8.30;99.90
23815;DHT22;12088;53.078;8.720;2022-09-28T05:24:11;8.30;99.90
23815;DHT22;12088;53.078;8.720;2022-09-28T05:26:37;8.30;99.90
23815;DHT22;12088;53.078;8.720;2022-09-28T05:29:02;8.40;99.90
23815;DHT22;12088;53.078;8.720;2022-09-28T05:31:28;8.40;99.90
23815;DHT22;12088;53.078;8.720;2022-09-28T05:33:53;8.40;99.90
23815;DHT22;12088;53.078;8.720;2022-09-28T05:36:19;8.30;99.90
23815;DHT22;12088;53.078;8.720;2022-09-28T05:38:45;8.30;99.90
23815;DHT22;12088;53.078;8.720;2022-09-28T05:41:11;8.40;99.90
23815;DHT22;12088;53.078;8.720;2022-09-28T05:43:37;8.40;99.90
23815;DHT22;12088;53.078;8.720;2022-09-28T05:46:03;8.40;99.90
23815;DHT22;12088;53.078;8.720;2022-09-28T05:48:28;8.40;99.90
23815;DHT22;12088;53.078;8.720;2022-09-28T05:50:54;8.30;99.90
23815;DHT22;12088;53.078;8.720;2022-09-28T05:53:20;8.40;99.90
23815;DHT22;12088;53.078;8.720;2022-09-28T05:55:46;8.30;99.90
23815;DHT22;12088;53.078;8.720;2022-09-28T05:58:12;8.40;99.90
23815;DHT22;12088;53.078;8.720;2022-09-28T06:00:37;8.40;99.90
23815;DHT22;12088;53.078;8.720;2022-09-28T06:03:05;8.40;99.90
23815;DHT22;12088;53.078;8.720;2022-09-28T06:05:33;8.40;99.90
23815;DHT22;12088;53.078;8.720;2022-09-28T06:08:00;8.50;99.90
23815;DHT22;12088;53.078;8.720;2022-09-28T06:10:27;8.50;99.90
23815;DHT22;12088;53.078;8.720;2022-09-28T06:12:56;8.50;99.90
23815;DHT22;12088;53.078;8.720;2022-09-28T06:15:24;8.40;99.90
23815;DHT22;12088;53.078;8.720;2022-09-28T06:18:04;8.50;99.90
23815;DHT22;12088;53.078;8.720;2022-09-28T06:20:34;8.40;99.90
23815;DHT22;12088;53.078;8.720;2022-09-28T06:23:00;8.40;99.90
23815;DHT22;12088;53.078;8.720;2022-09-28T06:25:26;8.30;99.90
23815;DHT22;12088;53.078;8.720;2022-09-28T06:27:56;8.50;99.90
23815;DHT22;12088;53.078;8.720;2022-09-28T06:30:22;8.40;99.90
23815;DHT22;12088;53.078;8.720;2022-09-28T06:32:57;8.40;99.90
23815;DHT22;12088;53.078;8.720;2022-09-28T06:35:25;8.40;99.90
23815;DHT22;12088;53.078;8.720;2022-09-28T06:37:52;8.40;99.90
23815;DHT22;12088;53.078;8.720;2022-09-28T06:40:19;8.50;99.90
23815;DHT22;12088;53.078;8.720;2022-09-28T06:42:53;8.50;99.90
23815;DHT22;12088;53.078;8.720;2022-09-28T06:45:19;8.40;99.90
23815;DHT22;12088;53.078;8.720;2022-09-28T06:47:59;8.50;99.90
23815;DHT22;12088;53.078;8.720;2022-09-28T06:50:26;8.50;99.90
23815;DHT22;12088;53.078;8.720;2022-09-28T06:52:53;8.50;99.90
23815;DHT22;12088;53.078;8.720;2022-09-28T06:55:20;8.50;99.90
23815;DHT22;12088;53.078;8.720;2022-09-28T06:57:46;8.60;99.90
23815;DHT22;12088;53.078;8.720;2022-09-28T07:00:12;8.50;99.90
23815;DHT22;12088;53.078;8.720;2022-09-28T07:02:37;8.60;99.90
23815;DHT22;12088;53.078;8.720;2022-09-28T07:05:03;8.70;99.90
23815;DHT22;12088;53.078;8.720;2022-09-28T07:07:32;8.80;99.90
23815;DHT22;12088;53.078;8.720;2022-09-28T07:09:58;8.80;99.90
23815;DHT22;12088;53.078;8.720;2022-09-28T07:12:23;8.90;99.90
23815;DHT22;12088;53.078;8.720;2022-09-28T07:14:50;9.00;99.90
23815;DHT22;12088;53.078;8.720;2022-09-28T07:17:21;9.00;99.90
23815;DHT22;12088;53.078;8.720;2022-09-28T07:19:46;9.20;99.90
23815;DHT22;12088;53.078;8.720;2022-09-28T07:22:17;9.10;99.90
23815;DHT22;12088;53.078;8.720;2022-09-28T07:24:42;9.20;99.90
23815;DHT22;12088;53.078;8.720;2022-09-28T07:27:08;9.20;99.90
23815;DHT22;12088;53.078;8.720;2022-09-28T07:29:34;9.20;99.90
23815;DHT22;12088;53.078;8.720;2022-09-28T07:32:00;9.30;99.90
23815;DHT22;12088;53.078;8.720;2022-09-28T07:34:25;9.20;99.90
23815;DHT22;12088;53.078;8.720;2022-09-28T07:36:51;9.30;99.90
23815;DHT22;12088;53.078;8.720;2022-09-28T07:39:23;9.50;99.90
23815;DHT22;12088;53.078;8.720;2022-09-28T07:41:48;9.50;99.90
23815;DHT22;12088;53.078;8.720;2022-09-28T07:44:14;9.50;99.90
23815;DHT22;12088;53.078;8.720;2022-09-28T07:46:39;9.60;99.90
23815;DHT22;12088;53.078;8.720;2022-09-28T07:49:05;9.60;99.90
23815;DHT22;12088;53.078;8.720;2022-09-28T07:51:32;9.80;99.90
23815;DHT22;12088;53.078;8.720;2022-09-28T07:53:58;9.80;99.90
23815;DHT22;12088;53.078;8.720;2022-09-28T07:56:24;9.90;99.90
23815;DHT22;12088;53.078;8.720;2022-09-28T07:58:50;10.00;99.90
23815;DHT22;12088;53.078;8.720;2022-09-28T08:01:16;10.10;99.90
23815;DHT22;12088;53.078;8.720;2022-09-28T08:03:43;10.30;99.90
23815;DHT22;12088;53.078;8.720;2022-09-28T08:06:14;10.50;99.90
23815;DHT22;12088;53.078;8.720;2022-09-28T08:08:41;10.70;99.90
23815;DHT22;12088;53.078;8.720;2022-09-28T08:11:14;10.80;99.90
23815;DHT22;12088;53.078;8.720;2022-09-28T08:13:41;10.50;99.90
23815;DHT22;12088;53.078;8.720;2022-09-28T08:16:06;10.70;99.90
23815;DHT22;12088;53.078;8.720;2022-09-28T08:18:33;10.90;99.90
23815;DHT22;12088;53.078;8.720;2022-09-28T08:20:59;11.00;99.90
23815;DHT22;12088;53.078;8.720;2022-09-28T08:23:44;11.10;99.90
23815;DHT22;12088;53.078;8.720;2022-09-28T08:26:09;11.00;99.90
23815;DHT22;12088;53.078;8.720;2022-09-28T08:28:34;10.80;99.90
23815;DHT22;12088;53.078;8.720;2022-09-28T08:31:00;10.90;99.90
23815;DHT22;12088;53.078;8.720;2022-09-28T08:33:26;11.00;99.90
23815;DHT22;12088;53.078;8.720;2022-09-28T08:35:57;11.10;99.90
23815;DHT22;12088;53.078;8.720;2022-09-28T08:38:24;11.10;99.90
23815;DHT22;12088;53.078;8.720;2022-09-28T08:44:09;11.10;99.90
23815;DHT22;12088;53.078;8.720;2022-09-28T08:46:46;10.90;99.90
23815;DHT22;12088;53.078;8.720;2022-09-28T08:49:33;10.90;99.90
23815;DHT22;12088;53.078;8.720;2022-09-28T08:52:05;10.70;99.90
23815;DHT22;12088;53.078;8.720;2022-09-28T08:54:48;10.60;99.90
23815;DHT22;12088;53.078;8.720;2022-09-28T08:57:23;10.70;99.90
23815;DHT22;12088;53.078;8.720;2022-09-28T08:59:53;10.80;99.90
23815;DHT22;12088;53.078;8.720;2022-09-28T09:02:32;10.90;99.90
23815;DHT22;12088;53.078;8.720;2022-09-28T09:05:02;10.90;99.90
23815;DHT22;12088;53.078;8.720;2022-09-28T09:10:29;10.80;99.90
23815;DHT22;12088;53.078;8.720;2022-09-28T09:13:21;10.70;99.90
23815;DHT22;12088;53.078;8.720;2022-09-28T09:16:03;10.60;99.90
23815;DHT22;12088;53.078;8.720;2022-09-28T09:18:47;10.50;99.90
23815;DHT22;12088;53.078;8.720;2022-09-28T09:21:39;10.50;99.90
23815;DHT22;12088;53.078;8.720;2022-09-28T09:24:13;10.40;99.90
23815;DHT22;12088;53.078;8.720;2022-09-28T09:26:52;10.40;99.90
23815;DHT22;12088;53.078;8.720;2022-09-28T09:32:05;10.60;99.90
23815;DHT22;12088;53.078;8.720;2022-09-28T09:37:23;10.20;99.90
23815;DHT22;12088;53.078;8.720;2022-09-28T09:40:27;10.50;99.90
23815;DHT22;12088;53.078;8.720;2022-09-28T09:45:55;10.60;99.90
23815;DHT22;12088;53.078;8.720;2022-09-28T09:48:28;10.80;99.90
23815;DHT22;12088;53.078;8.720;2022-09-28T09:51:12;11.00;99.90
23815;DHT22;12088;53.078;8.720;2022-09-28T09:53:45;11.10;99.90
23815;DHT22;12088;53.078;8.720;2022-09-28T09:56:36;11.60;99.90
23815;DHT22;12088;53.078;8.720;2022-09-28T09:59:10;12.10;99.90
23815;DHT22;12088;53.078;8.720;2022-09-28T10:01:38;12.90;99.90
23815;DHT22;12088;53.078;8.720;2022-09-28T10:04:13;13.60;99.90
23815;DHT22;12088;53.078;8.720;2022-09-28T10:06:41;14.00;99.90
23815;DHT22;12088;53.078;8.720;2022-09-28T10:09:15;14.40;99.90
23815;DHT22;12088;53.078;8.720;2022-09-28T10:11:45;15.70;99.90
23815;DHT22;12088;53.078;8.720;2022-09-28T10:14:20;16.10;99.90
23815;DHT22;12088;53.078;8.720;2022-09-28T10:16:47;16.00;99.90
23815;DHT22;12088;53.078;8.720;2022-09-28T10:19:16;17.10;99.90
23815;DHT22;12088;53.078;8.720;2022-09-28T10:21:42;18.50;99.90
23815;DHT22;12088;53.078;8.720;2022-09-28T10:24:21;19.60;99.90
23815;DHT22;12088;53.078;8.720;2022-09-28T10:26:53;20.10;99.90
23815;DHT22;12088;53.078;8.720;2022-09-28T10:29:21;19.40;99.90
23815;DHT22;12088;53.078;8.720;2022-09-28T10:31:50;19.80;99.90
23815;DHT22;12088;53.078;8.720;2022-09-28T10:34:18;20.90;99.90
23815;DHT22;12088;53.078;8.720;2022-09-28T10:36:51;20.80;99.90
23815;DHT22;12088;53.078;8.720;2022-09-28T10:39:29;20.60;99.90
23815;DHT22;12088;53.078;8.720;2022-09-28T10:41:56;20.90;99.90
23815;DHT22;12088;53.078;8.720;2022-09-28T10:44:24;21.40;99.90
23815;DHT22;12088;53.078;8.720;2022-09-28T10:47:02;20.80;99.90
23815;DHT22;12088;53.078;8.720;2022-09-28T10:49:40;21.70;99.90
23815;DHT22;12088;53.078;8.720;2022-09-28T10:52:29;21.90;99.90
23815;DHT22;12088;53.078;8.720;2022-09-28T10:54:55;21.20;99.90
23815;DHT22;12088;53.078;8.720;2022-09-28T10:57:34;18.90;99.90
23815;DHT22;12088;53.078;8.720;2022-09-28T11:00:02;18.90;99.90
23815;DHT22;12088;53.078;8.720;2022-09-28T11:02:33;20.00;99.90
23815;DHT22;12088;53.078;8.720;2022-09-28T11:05:03;19.60;99.90
23815;DHT22;12088;53.078;8.720;2022-09-28T11:07:31;18.40;99.90
23815;DHT22;12088;53.078;8.720;2022-09-28T11:09:58;19.00;99.90
23815;DHT22;12088;53.078;8.720;2022-09-28T11:12:31;20.10;99.90
23815;DHT22;12088;53.078;8.720;2022-09-28T11:15:01;22.00;99.90
23815;DHT22;12088;53.078;8.720;2022-09-28T11:17:38;24.60;99.90
23815;DHT22;12088;53.078;8.720;2022-09-28T11:22:51;23.00;99.90
23815;DHT22;12088;53.078;8.720;2022-09-28T11:30:45;25.70;99.90
23815;DHT22;12088;53.078;8.720;2022-09-28T11:33:17;26.50;99.90
23815;DHT22;12088;53.078;8.720;2022-09-28T11:35:55;27.30;99.90
23815;DHT22;12088;53.078;8.720;2022-09-28T11:38:38;26.80;99.90
23815;DHT22;12088;53.078;8.720;2022-09-28T11:47:03;23.80;99.90
23815;DHT22;12088;53.078;8.720;2022-09-28T11:49:36;23.00;99.90
23815;DHT22;12088;53.078;8.720;2022-09-28T11:52:17;21.60;99.90
23815;DHT22;12088;53.078;8.720;2022-09-28T11:54:58;20.30;99.90
23815;DHT22;12088;53.078;8.720;2022-09-28T11:57:35;19.30;99.90
23815;DHT22;12088;53.078;8.720;2022-09-28T12:00:18;18.40;99.90
23815;DHT22;12088;53.078;8.720;2022-09-28T12:07:47;16.70;99.90
23815;DHT22;12088;53.078;8.720;2022-09-28T12:10:19;16.50;99.90
23815;DHT22;12088;53.078;8.720;2022-09-28T12:12:49;16.20;99.90
23815;DHT22;12088;53.078;8.720;2022-09-28T12:15:18;15.60;99.90
23815;DHT22;12088;53.078;8.720;2022-09-28T12:17:50;15.70;99.90
23815;DHT22;12088;53.078;8.720;2022-09-28T12:20:21;15.80;99.90
23815;DHT22;12088;53.078;8.720;2022-09-28T12:23:10;15.70;99.90
23815;DHT22;12088;53.078;8.720;2022-09-28T12:25:43;15.90;99.90
23815;DHT22;12088;53.078;8.720;2022-09-28T12:28:38;16.10;99.90
23815;DHT22;12088;53.078;8.720;2022-09-28T12:31:15;16.10;99.90
23815;DHT22;12088;53.078;8.720;2022-09-28T12:33:45;16.10;99.90
23815;DHT22;12088;53.078;8.720;2022-09-28T12:41:30;15.70;99.90
23815;DHT22;12088;53.078;8.720;2022-09-28T12:44:11;15.30;99.90
23815;DHT22;12088;53.078;8.720;2022-09-28T12:51:57;14.90;99.90
23815;DHT22;12088;53.078;8.720;2022-09-28T12:57:55;14.70;99.90
23815;DHT22;12088;53.078;8.720;2022-09-28T13:00:25;14.50;99.90
23815;DHT22;12088;53.078;8.720;2022-09-28T13:04:07;14.30;99.90
23815;DHT22;12088;53.078;8.720;2022-09-28T13:11:42;14.70;99.90
23815;DHT22;12088;53.078;8.720;2022-09-28T13:17:44;15.80;99.90
23815;DHT22;12088;53.078;8.720;2022-09-28T13:25:32;17.90;99.90
23815;DHT22;12088;53.078;8.720;2022-09-28T13:28:02;19.00;99.90
23815;DHT22;12088;53.078;8.720;2022-09-28T13:30:29;19.20;99.90
23815;DHT22;12088;53.078;8.720;2022-09-28T13:32:58;20.50;99.90
23815;DHT22;12088;53.078;8.720;2022-09-28T13:35:25;20.50;99.90
23815;DHT22;12088;53.078;8.720;2022-09-28T13:43:32;18.10;99.90
23815;DHT22;12088;53.078;8.720;2022-09-28T13:46:04;17.40;99.90
23815;DHT22;12088;53.078;8.720;2022-09-28T13:49:29;17.00;99.90
23815;DHT22;12088;53.078;8.720;2022-09-28T13:59:59;15.60;99.90
23815;DHT22;12088;53.078;8.720;2022-09-28T14:02:43;15.60;99.90
23815;DHT22;12088;53.078;8.720;2022-09-28T14:08:14;15.50;99.90
23815;DHT22;12088;53.078;8.720;2022-09-28T14:10:55;15.40;99.90
23815;DHT22;12088;53.078;8.720;2022-09-28T14:16:31;15.30;99.90
23815;DHT22;12088;53.078;8.720;2022-09-28T14:19:20;15.20;99.90
23815;DHT22;12088;53.078;8.720;2022-09-28T14:22:24;15.20;99.90
23815;DHT22;12088;53.078;8.720;2022-09-28T14:33:36;14.90;99.90
23815;DHT22;12088;53.078;8.720;2022-09-28T14:36:19;15.20;99.90
23815;DHT22;12088;53.078;8.720;2022-09-28T14:39:21;15.40;99.90
23815;DHT22;12088;53.078;8.720;2022-09-28T14:42:21;15.30;99.90
23815;DHT22;12088;53.078;8.720;2022-09-28T14:47:35;14.80;99.90
23815;DHT22;12088;53.078;8.720;2022-09-28T14:50:24;14.60;99.90
23815;DHT22;12088;53.078;8.720;2022-09-28T14:52:53;14.70;99.90
23815;DHT22;12088;53.078;8.720;2022-09-28T14:55:25;14.60;99.90
23815;DHT22;12088;53.078;8.720;2022-09-28T14:57:54;14.50;99.90
23815;DHT22;12088;53.078;8.720;2022-09-28T15:00:22;14.40;99.90
23815;DHT22;12088;53.078;8.720;2022-09-28T15:02:51;14.60;99.90
23815;DHT22;12088;53.078;8.720;2022-09-28T15:05:41;14.50;99.90
23815;DHT22;12088;53.078;8.720;2022-09-28T15:08:10;14.50;99.90
23815;DHT22;12088;53.078;8.720;2022-09-28T15:10:38;14.60;99.90
23815;DHT22;12088;53.078;8.720;2022-09-28T15:13:20;14.50;99.90
23815;DHT22;12088;53.078;8.720;2022-09-28T15:15:52;14.60;99.90
23815;DHT22;12088;53.078;8.720;2022-09-28T15:21:06;14.60;99.90
23815;DHT22;12088;53.078;8.720;2022-09-28T15:23:33;14.60;99.90
23815;DHT22;12088;53.078;8.720;2022-09-28T15:26:00;14.70;99.90
23815;DHT22;12088;53.078;8.720;2022-09-28T15:28:25;14.60;99.90
23815;DHT22;12088;53.078;8.720;2022-09-28T15:30:58;14.70;99.90
23815;DHT22;12088;53.078;8.720;2022-09-28T15:33:30;14.60;99.90
23815;DHT22;12088;53.078;8.720;2022-09-28T15:36:19;14.40;99.90
23815;DHT22;12088;53.078;8.720;2022-09-28T15:38:52;14.20;99.90
23815;DHT22;12088;53.078;8.720;2022-09-28T15:41:19;14.10;99.90
23815;DHT22;12088;53.078;8.720;2022-09-28T15:46:39;14.00;99.90
23815;DHT22;12088;53.078;8.720;2022-09-28T15:49:07;13.80;99.90
23815;DHT22;12088;53.078;8.720;2022-09-28T15:51:48;13.80;99.90
23815;DHT22;12088;53.078;8.720;2022-09-28T15:54:16;13.60;99.90
23815;DHT22;12088;53.078;8.720;2022-09-28T15:56:57;13.50;99.90
23815;DHT22;12088;53.078;8.720;2022-09-28T16:09:53;12.70;99.90
23815;DHT22;12088;53.078;8.720;2022-09-28T16:12:19;12.60;99.90
23815;DHT22;12088;53.078;8.720;2022-09-28T16:14:50;12.40;99.90
23815;DHT22;12088;53.078;8.720;2022-09-28T16:17:29;12.20;99.90
23815;DHT22;12088;53.078;8.720;2022-09-28T16:20:00;12.10;99.90
23815;DHT22;12088;53.078;8.720;2022-09-28T16:22:27;11.90;99.90
23815;DHT22;12088;53.078;8.720;2022-09-28T16:24:57;11.80;99.90
23815;DHT22;12088;53.078;8.720;2022-09-28T16:27:41;11.70;99.90
23815;DHT22;12088;53.078;8.720;2022-09-28T16:32:37;11.60;99.90
23815;DHT22;12088;53.078;8.720;2022-09-28T16:37:37;11.40;99.90
23815;DHT22;12088;53.078;8.720;2022-09-28T16:40:07;11.40;99.90
23815;DHT22;12088;53.078;8.720;2022-09-28T16:42:33;11.30;99.90
23815;DHT22;12088;53.078;8.720;2022-09-28T16:44:59;11.30;99.90
23815;DHT22;12088;53.078;8.720;2022-09-28T16:47:27;11.20;99.90
23815;DHT22;12088;53.078;8.720;2022-09-28T16:50:05;11.10;99.90
23815;DHT22;12088;53.078;8.720;2022-09-28T16:52:31;11.00;99.90
23815;DHT22;12088;53.078;8.720;2022-09-28T16:55:16;11.00;99.90
23815;DHT22;12088;53.078;8.720;2022-09-28T16:57:45;10.90;99.90
23815;DHT22;12088;53.078;8.720;2022-09-28T17:00:18;10.80;99.90
23815;DHT22;12088;53.078;8.720;2022-09-28T17:02:45;10.80;99.90
23815;DHT22;12088;53.078;8.720;2022-09-28T17:05:12;10.70;99.90
23815;DHT22;12088;53.078;8.720;2022-09-28T17:07:40;10.60;99.90
23815;DHT22;12088;53.078;8.720;2022-09-28T17:10:17;10.40;99.90
23815;DHT22;12088;53.078;8.720;2022-09-28T17:12:44;10.30;99.90
23815;DHT22;12088;53.078;8.720;2022-09-28T17:15:10;10.20;99.90
23815;DHT22;12088;53.078;8.720;2022-09-28T17:17:36;10.10;99.90
23815;DHT22;12088;53.078;8.720;2022-09-28T17:20:18;10.00;99.90
23815;DHT22;12088;53.078;8.720;2022-09-28T17:22:47;9.90;99.90
23815;DHT22;12088;53.078;8.720;2022-09-28T17:25:13;9.80;99.90
23815;DHT22;12088;53.078;8.720;2022-09-28T17:27:39;9.70;99.90
23815;DHT22;12088;53.078;8.720;2022-09-28T17:30:08;9.70;99.90
23815;DHT22;12088;53.078;8.720;2022-09-28T17:32:36;9.60;99.90
23815;DHT22;12088;53.078;8.720;2022-09-28T17:35:02;9.60;99.90
23815;DHT22;12088;53.078;8.720;2022-09-28T17:37:27;9.60;99.90
23815;DHT22;12088;53.078;8.720;2022-09-28T17:39:53;9.50;99.90
23815;DHT22;12088;53.078;8.720;2022-09-28T17:42:19;9.50;99.90
23815;DHT22;12088;53.078;8.720;2022-09-28T17:44:44;9.30;99.90
23815;DHT22;12088;53.078;8.720;2022-09-28T17:47:10;9.40;99.90
23815;DHT22;12088;53.078;8.720;2022-09-28T17:49:35;9.30;99.90
23815;DHT22;12088;53.078;8.720;2022-09-28T17:52:03;9.20;99.90
23815;DHT22;12088;53.078;8.720;2022-09-28T17:54:29;9.20;99.90
23815;DHT22;12088;53.078;8.720;2022-09-28T17:56:55;9.20;99.90
23815;DHT22;12088;53.078;8.720;2022-09-28T17:59:20;9.20;99.90
23815;DHT22;12088;53.078;8.720;2022-09-28T18:01:46;9.20;99.90
23815;DHT22;12088;53.078;8.720;2022-09-28T18:04:13;9.20;99.90
23815;DHT22;12088;53.078;8.720;2022-09-28T18:06:42;9.20;99.90
23815;DHT22;12088;53.078;8.720;2022-09-28T18:09:17;9.10;99.90
23815;DHT22;12088;53.078;8.720;2022-09-28T18:11:50;9.00;99.90
23815;DHT22;12088;53.078;8.720;2022-09-28T18:14:21;9.00;99.90
23815;DHT22;12088;53.078;8.720;2022-09-28T18:16:47;8.90;99.90
23815;DHT22;12088;53.078;8.720;2022-09-28T18:19:13;8.90;99.90
23815;DHT22;12088;53.078;8.720;2022-09-28T18:21:39;9.00;99.90
23815;DHT22;12088;53.078;8.720;2022-09-28T18:24:04;9.00;99.90